createdAt,value
2022-12-09T00:02:15.158Z,-4.63
2022-12-09T00:07:18.431Z,-4.19
2022-12-09T00:12:21.576Z,-4.75
2022-12-09T00:17:24.924Z,-4.31
2022-12-09T00:22:28.866Z,-5.13
2022-12-09T00:27:31.999Z,-4.21
2022-12-09T00:32:35.212Z,-4.33
2022-12-09T00:37:38.553Z,-4.41
2022-12-09T00:42:42.294Z,-3.90
2022-12-09T00:47:45.752Z,-4.29
2022-12-09T00:52:49.026Z,-4.86
2022-12-09T00:57:52.559Z,-3.98
2022-12-09T01:02:56.094Z,-4.10
2022-12-09T01:07:59.346Z,-4.45
2022-12-09T01:13:03.247Z,-3.82
2022-12-09T01:18:07.170Z,-4.47
2022-12-09T01:23:10.214Z,-3.80
2022-12-09T01:28:13.680Z,-4.17
2022-12-09T01:33:16.816Z,-4.58
2022-12-09T01:38:20.210Z,-4.77
2022-12-09T01:43:23.807Z,-4.71
2022-12-09T01:48:37.091Z,-4.22
2022-12-09T01:53:45.201Z,-5.11
2022-12-09T01:58:51.572Z,-4.59
2022-12-09T02:03:55.380Z,-4.91
2022-12-09T02:08:59.736Z,-4.89
2022-12-09T02:14:15.988Z,-4.76
2022-12-09T02:19:41.281Z,-4.76
2022-12-09T02:25:03.967Z,-4.68
2022-12-09T02:30:19.630Z,-4.52
2022-12-09T02:35:35.954Z,-5.02
2022-12-09T02:41:04.313Z,-4.82
2022-12-09T02:46:13.149Z,-5.19
2022-12-09T02:51:20.837Z,-5.19
2022-12-09T02:56:25.356Z,-5.37
2022-12-09T03:01:42.367Z,-4.91
2022-12-09T03:06:51.711Z,-5.02
2022-12-09T03:11:59.513Z,-5.20
2022-12-09T03:17:25.078Z,-4.74
2022-12-09T03:22:29.774Z,-4.92
2022-12-09T03:28:04.083Z,-5.19
2022-12-09T03:33:09.497Z,-5.40
2022-12-09T03:38:18.443Z,-4.85
2022-12-09T03:43:30.408Z,-4.18
2022-12-09T03:48:34.060Z,-4.77
2022-12-09T03:53:50.952Z,-4.22
2022-12-09T03:58:57.196Z,-4.49
2022-12-09T04:04:00.834Z,-4.36
2022-12-09T04:09:05.422Z,-4.26
2022-12-09T04:14:15.115Z,-4.42
2022-12-09T04:19:18.891Z,-5.09
2022-12-09T04:24:22.141Z,-5.20
2022-12-09T04:29:25.271Z,-4.54
2022-12-09T04:34:28.543Z,-4.59
2022-12-09T04:39:31.681Z,-4.30
2022-12-09T04:44:35.066Z,-4.36
2022-12-09T04:49:38.371Z,-4.25
2022-12-09T04:54:41.744Z,-4.63
2022-12-09T04:59:45.192Z,-4.22
2022-12-09T05:04:48.486Z,-3.87
2022-12-09T05:09:52.259Z,-3.47
2022-12-09T05:14:55.754Z,-3.50
2022-12-09T05:19:59.210Z,-4.20
2022-12-09T05:25:02.361Z,-3.16
2022-12-09T05:30:07.624Z,-2.71
2022-12-09T05:35:11.597Z,-2.63
2022-12-09T05:40:15.208Z,-2.39
2022-12-09T05:45:18.573Z,-2.29
2022-12-09T05:50:22.262Z,-1.48
2022-12-09T05:55:25.833Z,-2.06
2022-12-09T06:00:29.186Z,-1.70
2022-12-09T06:05:32.613Z,-2.06
2022-12-09T06:10:41.382Z,-1.83
2022-12-09T06:15:44.703Z,-1.64
2022-12-09T06:20:50.739Z,-1.43
2022-12-09T06:25:54.918Z,-1.44
2022-12-09T06:30:58.749Z,-1.42
2022-12-09T06:36:02.940Z,-1.25
2022-12-09T06:41:11.264Z,-2.16
2022-12-09T06:46:19.558Z,-0.94
2022-12-09T06:51:23.624Z,-0.69
2022-12-09T06:56:26.979Z,-0.84
2022-12-09T07:01:30.202Z,-0.61
2022-12-09T07:06:42.476Z,-0.56
2022-12-09T07:11:47.537Z,0.14
2022-12-09T07:16:51.487Z,1.59
2022-12-09T07:21:55.179Z,3.07
2022-12-09T07:27:03.124Z,3.82
2022-12-09T07:32:11.668Z,4.20
2022-12-09T07:37:15.131Z,2.93
2022-12-09T07:42:18.607Z,1.55
2022-12-09T07:47:28.831Z,2.02
2022-12-09T07:52:31.975Z,5.30
2022-12-09T07:57:37.839Z,6.45
2022-12-09T08:02:41.647Z,7.76
2022-12-09T08:07:45.605Z,10.17
2022-12-09T08:12:49.375Z,13.30
2022-12-09T08:17:52.934Z,15.76
2022-12-09T08:22:56.367Z,13.17
2022-12-09T08:27:59.656Z,13.05
2022-12-09T08:33:05.218Z,12.43
2022-12-09T08:38:08.512Z,17.16
2022-12-09T08:43:11.592Z,15.54
2022-12-09T08:48:15.077Z,11.95
2022-12-09T08:53:18.535Z,5.64
2022-12-09T08:58:21.929Z,5.93
2022-12-09T09:03:25.454Z,6.40
2022-12-09T09:08:29.147Z,6.01
2022-12-09T09:13:33.370Z,5.54
2022-12-09T09:18:36.988Z,6.51
2022-12-09T09:23:42.216Z,6.47
2022-12-09T09:28:46.534Z,6.20
2022-12-09T09:33:50.934Z,7.66
2022-12-09T09:38:56.732Z,8.76
2022-12-09T09:44:01.188Z,8.08
2022-12-09T09:49:11.324Z,9.90
2022-12-09T09:54:16.083Z,10.40
2022-12-09T09:59:49.152Z,8.39
2022-12-09T10:05:32.951Z,7.98
2022-12-09T10:10:50.662Z,12.70
2022-12-09T10:16:15.541Z,14.36
2022-12-09T10:21:21.041Z,13.04
2022-12-09T10:26:30.169Z,15.21
2022-12-09T10:31:33.648Z,15.52
2022-12-09T10:36:38.110Z,13.92
2022-12-09T10:42:16.137Z,12.55
2022-12-09T10:47:29.047Z,16.64
2022-12-09T10:52:46.090Z,18.10
2022-12-09T10:57:49.374Z,21.86
2022-12-09T11:02:55.740Z,14.05
2022-12-09T11:07:59.660Z,10.12
2022-12-09T11:13:06.534Z,10.36
2022-12-09T11:18:24.744Z,15.67
2022-12-09T11:23:29.042Z,18.77
2022-12-09T11:28:39.392Z,17.85
2022-12-09T11:33:52.552Z,15.64
2022-12-09T11:39:16.082Z,16.14
2022-12-09T11:44:27.754Z,16.60
2022-12-09T11:49:36.213Z,15.77
2022-12-09T11:54:49.163Z,15.20
2022-12-09T12:00:06.298Z,14.14
2022-12-09T12:05:27.904Z,13.39
2022-12-09T12:10:39.685Z,11.02
2022-12-09T12:16:06.682Z,11.55
2022-12-09T12:21:19.519Z,10.99
2022-12-09T12:26:26.988Z,8.08
2022-12-09T12:31:54.571Z,6.36
2022-12-09T12:37:16.441Z,6.88
2022-12-09T12:43:11.827Z,5.22
2022-12-09T12:48:24.812Z,4.54
2022-12-09T12:53:59.432Z,3.66
2022-12-09T12:59:22.136Z,3.57
2022-12-09T13:04:40.367Z,2.91
2022-12-09T13:09:49.741Z,2.49
2022-12-09T13:14:54.596Z,2.22
2022-12-09T13:20:03.045Z,2.41
2022-12-09T13:25:06.795Z,1.84
2022-12-09T13:30:17.378Z,2.05
2022-12-09T13:35:27.700Z,1.86
2022-12-09T13:40:39.272Z,1.46
2022-12-09T13:45:45.178Z,1.78
2022-12-09T13:50:57.847Z,1.79
2022-12-09T13:56:05.145Z,1.38
2022-12-09T14:01:33.133Z,1.43
2022-12-09T14:07:06.621Z,1.67
2022-12-09T14:12:32.960Z,1.52
2022-12-09T14:17:35.960Z,1.18
2022-12-09T14:22:39.814Z,1.27
2022-12-09T14:28:24.588Z,1.07
2022-12-09T14:33:35.229Z,0.77
2022-12-09T14:39:23.589Z,0.83
2022-12-09T14:44:36.271Z,0.80
2022-12-09T14:55:07.123Z,0.56
2022-12-09T15:00:25.724Z,0.70
2022-12-09T15:05:29.113Z,0.37
2022-12-09T15:10:37.927Z,0.20
2022-12-09T15:15:41.153Z,0.08
2022-12-09T15:20:49.649Z,0.24
2022-12-09T15:25:59.165Z,0.35
2022-12-09T15:31:14.171Z,0.04
2022-12-09T15:36:21.901Z,0.13
2022-12-09T15:41:51.838Z,0.11
2022-12-09T15:46:57.776Z,-0.04
2022-12-09T15:52:04.280Z,-0.63
2022-12-09T15:57:11.731Z,-0.17
2022-12-09T16:02:24.409Z,-0.67
2022-12-09T16:07:27.932Z,-0.61
2022-12-09T16:12:34.781Z,-0.41
2022-12-09T16:17:52.640Z,-0.41
2022-12-09T16:22:55.755Z,-0.61
2022-12-09T16:28:03.368Z,-0.25
2022-12-09T16:33:17.241Z,-0.64
2022-12-09T16:38:20.415Z,-0.45
2022-12-09T16:43:25.059Z,-0.60
2022-12-09T16:48:29.957Z,-0.55
2022-12-09T16:53:41.629Z,-0.72
2022-12-09T16:58:44.790Z,-0.94
2022-12-09T17:03:53.402Z,-1.05
2022-12-09T17:08:56.544Z,-0.95
2022-12-09T17:13:59.686Z,-1.16
2022-12-09T17:19:06.981Z,-0.86
2022-12-09T17:24:12.056Z,-0.76
2022-12-09T17:29:15.495Z,-0.89
2022-12-09T17:34:19.267Z,-1.24
2022-12-09T17:39:24.919Z,-0.99
2022-12-09T17:44:28.630Z,-0.90
2022-12-09T17:49:31.869Z,-1.28
2022-12-09T17:54:35.063Z,-1.51
2022-12-09T17:59:38.482Z,-1.00
2022-12-09T18:04:41.559Z,-1.45
2022-12-09T18:09:46.615Z,-1.19
2022-12-09T18:14:53.088Z,-1.30
2022-12-09T18:19:56.226Z,-1.34
2022-12-09T18:24:59.438Z,-1.33
2022-12-09T18:30:02.628Z,-1.20
2022-12-09T18:35:06.400Z,-1.13
2022-12-09T18:40:10.275Z,-1.66
2022-12-09T18:45:13.406Z,-1.47
2022-12-09T18:50:16.653Z,-1.63
2022-12-09T18:55:19.740Z,-1.60
2022-12-09T19:00:22.919Z,-1.84
2022-12-09T19:05:26.716Z,-2.20
2022-12-09T19:10:29.904Z,-2.26
2022-12-09T19:15:34.594Z,-2.07
2022-12-09T19:20:37.715Z,-2.02
2022-12-09T19:25:42.108Z,-2.07
2022-12-09T19:30:49.800Z,-1.67
2022-12-09T19:35:53.381Z,-2.55
2022-12-09T19:41:01.012Z,-2.34
2022-12-09T19:46:06.526Z,-1.92
2022-12-09T19:51:12.273Z,-2.19
2022-12-09T19:56:18.142Z,-2.26
2022-12-09T20:01:30.319Z,-2.09
2022-12-09T20:06:34.768Z,-1.91
2022-12-09T20:11:37.803Z,-1.85
2022-12-09T20:16:41.832Z,-2.58
2022-12-09T20:21:44.912Z,-2.52
2022-12-09T20:26:48.003Z,-2.54
2022-12-09T20:31:51.984Z,-3.02
2022-12-09T20:36:55.394Z,-2.56
2022-12-09T20:41:59.600Z,-2.87
2022-12-09T20:47:02.738Z,-2.35
2022-12-09T20:52:05.838Z,-2.46
2022-12-09T20:57:08.916Z,-2.34
2022-12-09T21:02:15.594Z,-2.28
2022-12-09T21:07:18.889Z,-2.82
2022-12-09T21:12:22.001Z,-2.84
2022-12-09T21:17:25.134Z,-2.37
2022-12-09T21:22:31.664Z,-2.64
2022-12-09T21:27:34.785Z,-2.43
2022-12-09T21:32:39.666Z,-2.84
2022-12-09T21:37:42.805Z,-2.98
2022-12-09T21:42:45.823Z,-3.12
2022-12-09T21:47:48.905Z,-2.75
2022-12-09T21:52:52.320Z,-3.29
2022-12-09T21:57:55.378Z,-3.00
2022-12-09T22:02:58.558Z,-2.82
2022-12-09T22:08:02.063Z,-3.31
2022-12-09T22:13:05.265Z,-2.63
2022-12-09T22:18:08.466Z,-2.65
2022-12-09T22:23:12.162Z,-2.85
2022-12-09T22:28:15.234Z,-3.29
2022-12-09T22:33:18.423Z,-3.52
2022-12-09T22:38:23.188Z,-3.60
2022-12-09T22:43:26.241Z,-3.38
2022-12-09T22:48:29.572Z,-3.36
2022-12-09T22:53:33.413Z,-3.51
2022-12-09T22:58:36.435Z,-3.58
2022-12-09T23:03:40.525Z,-3.33
2022-12-09T23:08:44.916Z,-3.38
2022-12-09T23:13:48.785Z,-3.54
2022-12-09T23:18:53.410Z,-3.49
2022-12-09T23:23:58.950Z,-3.42
2022-12-09T23:29:02.845Z,-3.49
2022-12-09T23:34:07.328Z,-3.63
2022-12-09T23:39:13.975Z,-3.83
2022-12-09T23:44:18.663Z,-3.76
2022-12-09T23:49:21.964Z,-3.31
2022-12-09T23:54:25.139Z,-3.84
2022-12-09T23:59:28.179Z,-3.85
